Time;durP1;ratioP1;P1;durP2;ratioP2;P2;SDS_P1;SDS_P2;PMS_P1;PMS_P2;Temp;Humidity;BMP_temperature;BMP_pressure;BME280_temperature;BME280_humidity;BME280_pressure;Samples;Min_cycle;Max_cycle;Signal;HPM_P1;HPM_P2
2024/01/26 00:01:56;;;;;;;96.07;89.38;;;;;;;-143.39;100.00;64013.03;4971808;28;20042;-62
2024/01/26 00:04:24;;;;;;;94.95;88.30;;;;;;;-143.39;100.00;64013.03;4984435;28;20480;-62
2024/01/26 00:06:51;;;;;;;99.88;92.80;;;;;;;-143.39;100.00;64013.03;4984442;28;20105;-62
2024/01/26 00:09:18;;;;;;;101.68;94.68;;;;;;;-143.39;100.00;64013.03;4988441;28;20053;-60
2024/01/26 00:11:45;;;;;;;105.20;97.93;;;;;;;-143.39;100.00;64013.03;4977717;28;20046;-62
2024/01/26 00:14:12;;;;;;;101.68;94.78;;;;;;;-143.39;100.00;64013.03;4981200;28;20054;-61
2024/01/26 00:16:40;;;;;;;95.00;88.60;;;;;;;-143.39;100.00;64013.03;4982752;28;20054;-60
2024/01/26 00:19:07;;;;;;;95.28;88.85;;;;;;;-143.39;100.00;64013.03;4985296;28;20054;-60
2024/01/26 00:21:37;;;;;;;96.15;89.45;;;;;;;-143.39;100.00;64013.03;4975942;28;20057;-60
2024/01/26 00:24:04;;;;;;;96.15;89.68;;;;;;;-143.39;100.00;64013.03;4988671;28;20065;-62
2024/01/26 00:26:31;;;;;;;98.15;91.63;;;;;;;-143.39;100.00;64013.03;4988491;28;20436;-62
2024/01/26 00:28:57;;;;;;;94.57;88.22;;;;;;;-143.39;100.00;64013.03;4988513;28;20061;-62
2024/01/26 00:31:24;;;;;;;88.97;82.80;;;;;;;-143.39;100.00;64013.03;4977676;28;20051;-62
2024/01/26 00:33:51;;;;;;;94.07;87.70;;;;;;;-143.39;100.00;64013.03;4986292;28;20058;-60
2024/01/26 00:36:17;;;;;;;93.65;87.35;;;;;;;-143.39;100.00;64013.03;4978149;28;20059;-58
2024/01/26 00:38:46;;;;;;;94.93;88.53;;;;;;;-143.39;100.00;64013.03;4981775;28;20416;-59
2024/01/26 00:41:12;;;;;;;94.47;88.07;;;;;;;-143.39;100.00;64013.03;4970871;28;20431;-58
2024/01/26 00:43:39;;;;;;;92.82;86.53;;;;;;;-143.39;100.00;64013.03;4976363;28;20069;-58
2024/01/26 00:46:06;;;;;;;93.70;87.50;;;;;;;-143.39;100.00;64013.03;4976257;28;20363;-60
2024/01/26 00:48:33;;;;;;;91.10;84.80;;;;;;;-143.39;100.00;64013.03;4977270;28;20078;-58
2024/01/26 00:51:00;;;;;;;81.88;76.18;;;;;;;-143.39;100.00;64013.03;4983824;28;20054;-58
2024/01/26 00:53:27;;;;;;;82.93;77.03;;;;;;;-143.39;100.00;64013.03;4974959;28;20046;-58
2024/01/26 00:55:55;;;;;;;96.28;89.60;;;;;;;-143.39;100.00;64013.03;4980899;28;20262;-58
2024/01/26 00:58:22;;;;;;;89.05;82.72;;;;;;;-143.39;100.00;64013.03;4984706;28;20054;-58
2024/01/26 01:00:49;;;;;;;96.22;89.70;;;;;;;-143.39;100.00;64013.03;4982504;28;20047;-58
2024/01/26 01:03:16;;;;;;;89.90;83.60;;;;;;;-143.39;100.00;64013.03;4967357;28;20077;-58
2024/01/26 01:05:43;;;;;;;87.85;81.88;;;;;;;-143.39;100.00;64013.03;4980248;28;20539;-58
2024/01/26 01:08:10;;;;;;;83.35;77.45;;;;;;;-143.39;100.00;64013.03;4985117;28;20058;-58
2024/01/26 01:10:37;;;;;;;84.57;78.68;;;;;;;-143.39;100.00;64013.03;4977120;28;20137;-58
2024/01/26 01:13:08;;;;;;;91.15;84.95;;;;;;;-143.39;100.00;64013.03;4985744;28;20492;-58
2024/01/26 01:15:35;;;;;;;87.25;81.15;;;;;;;-143.39;100.00;64013.03;4977057;28;20054;-58
2024/01/26 01:18:01;;;;;;;88.10;81.95;;;;;;;-143.39;100.00;64013.03;4986728;28;20054;-60
2024/01/26 01:20:29;;;;;;;86.40;80.63;;;;;;;-143.39;100.00;64013.03;4983101;28;20058;-60
2024/01/26 01:22:58;;;;;;;81.10;75.40;;;;;;;-143.39;100.00;64013.03;4978689;28;20084;-60
2024/01/26 01:25:26;;;;;;;84.30;78.50;;;;;;;-143.39;100.00;64013.03;4981634;28;20121;-60
2024/01/26 01:27:53;;;;;;;83.38;77.68;;;;;;;-143.39;100.00;64013.03;4977958;28;20054;-58
2024/01/26 01:30:21;;;;;;;78.60;73.07;;;;;;;-143.39;100.00;64013.03;4979591;28;20061;-60
2024/01/26 01:32:48;;;;;;;81.47;75.93;;;;;;;-143.39;100.00;64013.03;4982866;28;20054;-60
2024/01/26 01:35:15;;;;;;;76.45;71.18;;;;;;;-143.39;100.00;64013.03;4981747;28;20059;-60
2024/01/26 01:37:42;;;;;;;76.88;71.38;;;;;;;-143.39;100.00;64013.03;4984388;28;20050;-60
2024/01/26 01:40:10;;;;;;;79.70;74.20;;;;;;;-143.39;100.00;64013.03;4981728;28;20057;-60
2024/01/26 01:42:36;;;;;;;89.10;83.38;;;;;;;-143.39;100.00;64013.03;4984562;28;20051;-58
2024/01/26 01:45:13;;;;;;;76.03;70.93;;;;;;;-143.39;100.00;64013.03;4976354;28;20535;-58
2024/01/26 01:47:41;;;;;;;71.78;66.82;;;;;;;-143.39;100.00;64013.03;4982183;28;20085;-60
2024/01/26 01:50:09;;;;;;;68.68;63.97;;;;;;;-143.39;100.00;64013.03;4976844;28;20061;-58
2024/01/26 01:52:40;;;;;;;70.43;65.63;;;;;;;-143.39;100.00;64013.03;4975565;28;20054;-58
2024/01/26 01:55:12;;;;;;;70.40;65.80;;;;;;;-143.39;100.00;64013.03;4979426;28;20058;-58
2024/01/26 01:57:41;;;;;;;64.07;59.58;;;;;;;-143.39;100.00;64013.03;4981181;28;20058;-58
2024/01/26 02:00:15;;;;;;;63.03;58.63;;;;;;;-143.39;100.00;64013.03;4980854;28;20054;-58
2024/01/26 02:02:46;;;;;;;67.28;62.67;;;;;;;-143.39;100.00;64013.03;4980846;28;20096;-58
2024/01/26 02:05:14;;;;;;;66.45;61.47;;;;;;;-143.39;100.00;64013.03;4980207;28;20056;-58
2024/01/26 02:07:41;;;;;;;64.80;60.40;;;;;;;-143.39;100.00;64013.03;4978428;28;20042;-58
2024/01/26 02:10:09;;;;;;;67.82;63.28;;;;;;;-143.39;100.00;64013.03;4981148;28;20058;-58
2024/01/26 02:12:36;;;;;;;64.60;60.20;;;;;;;-143.39;100.00;64013.03;4978757;28;20508;-58
2024/01/26 02:15:04;;;;;;;60.03;56.05;;;;;;;-143.39;100.00;64013.03;4977817;28;20054;-58
2024/01/26 02:17:32;;;;;;;58.20;54.33;;;;;;;-143.39;100.00;64013.03;4982693;28;20460;-58
2024/01/26 02:20:00;;;;;;;65.35;60.95;;;;;;;-143.39;100.00;64013.03;4978321;28;20070;-58
2024/01/26 02:22:27;;;;;;;62.53;58.30;;;;;;;-143.39;100.00;64013.03;4978350;28;20445;-59
2024/01/26 02:24:55;;;;;;;59.33;55.33;;;;;;;-143.39;100.00;64013.03;4976425;28;20058;-58
2024/01/26 02:27:23;;;;;;;56.17;52.38;;;;;;;-143.39;100.00;64013.03;4976172;28;20061;-59
2024/01/26 02:29:50;;;;;;;59.30;55.20;;;;;;;-143.39;100.00;64013.03;4980309;28;20058;-59
2024/01/26 02:32:17;;;;;;;65.00;60.80;;;;;;;-143.39;100.00;64013.03;4970625;28;20062;-59
2024/01/26 02:34:44;;;;;;;59.20;55.30;;;;;;;-143.39;100.00;64013.03;4981694;28;20056;-58
2024/01/26 02:37:11;;;;;;;61.08;57.00;;;;;;;-143.39;100.00;64013.03;4980304;28;20061;-59
2024/01/26 02:39:37;;;;;;;60.83;57.05;;;;;;;-143.39;100.00;64013.03;4980264;28;20053;-58
2024/01/26 02:42:05;;;;;;;58.90;55.00;;;;;;;-143.39;100.00;64013.03;4973936;28;20058;-59
2024/01/26 02:44:33;;;;;;;64.97;60.97;;;;;;;-143.39;100.00;64013.03;4980428;28;20535;-58
2024/01/26 02:47:00;;;;;;;55.08;51.58;;;;;;;-143.39;100.00;64013.03;4976435;28;20516;-59
2024/01/26 02:49:27;;;;;;;63.78;59.78;;;;;;;-143.39;100.00;64013.03;4979537;28;20537;-59
2024/01/26 02:51:53;;;;;;;71.72;67.50;;;;;;;-143.39;100.00;64013.03;4973018;28;20062;-58
2024/01/26 02:54:19;;;;;;;66.13;62.53;;;;;;;-143.39;100.00;64013.03;4978606;28;20050;-58
2024/01/26 02:56:46;;;;;;;55.63;52.22;;;;;;;-143.39;100.00;64013.03;4977645;28;20835;-58
2024/01/26 02:59:14;;;;;;;60.00;56.50;;;;;;;-143.39;100.00;64013.03;4979811;28;20059;-58
2024/01/26 03:01:41;;;;;;;64.75;60.95;;;;;;;-143.39;100.00;64013.03;4985838;28;20259;-58
2024/01/26 03:04:08;;;;;;;64.38;60.38;;;;;;;-143.39;100.00;64013.03;4981036;28;20061;-60
2024/01/26 03:06:35;;;;;;;61.17;57.38;;;;;;;-143.39;100.00;64013.03;4985707;28;20507;-60
2024/01/26 03:09:03;;;;;;;58.83;55.13;;;;;;;-143.39;100.00;64013.03;4975317;28;20061;-60
2024/01/26 03:11:37;;;;;;;63.20;59.45;;;;;;;-143.39;100.00;64013.03;4981844;28;20058;-60
2024/01/26 03:14:04;;;;;;;58.22;54.63;;;;;;;-143.39;100.00;64013.03;4984380;28;20078;-60
2024/01/26 03:16:32;;;;;;;61.55;57.75;;;;;;;-143.39;100.00;64013.03;4980120;28;20432;-60
2024/01/26 03:18:59;;;;;;;63.92;59.92;;;;;;;-143.39;100.00;64013.03;4973473;28;20404;-60
2024/01/26 03:21:26;;;;;;;70.20;65.88;;;;;;;-143.39;100.00;64013.03;4988352;28;20042;-60
2024/01/26 03:23:53;;;;;;;67.15;62.95;;;;;;;-143.39;100.00;64013.03;4983275;28;20113;-60
2024/01/26 03:26:20;;;;;;;58.25;54.25;;;;;;;-143.39;100.00;64013.03;4985704;28;20057;-60
2024/01/26 03:28:47;;;;;;;64.10;60.00;;;;;;;-143.39;100.00;64013.03;4986029;28;20141;-60
2024/01/26 03:31:14;;;;;;;64.20;60.00;;;;;;;-143.39;100.00;64013.03;4982841;28;20058;-60
2024/01/26 03:33:43;;;;;;;65.85;61.65;;;;;;;-143.39;100.00;64013.03;4983921;28;20043;-60
2024/01/26 03:36:12;;;;;;;62.00;57.90;;;;;;;-143.39;100.00;64013.03;4980776;28;20059;-60
2024/01/26 03:38:39;;;;;;;62.80;58.40;;;;;;;-143.39;100.00;64013.03;4972762;28;20066;-60
2024/01/26 03:41:06;;;;;;;61.83;57.53;;;;;;;-143.39;100.00;64013.03;4981608;28;20142;-60
2024/01/26 03:43:33;;;;;;;67.28;62.67;;;;;;;-143.39;100.00;64013.03;4989517;28;20427;-60
2024/01/26 03:46:01;;;;;;;64.63;60.13;;;;;;;-143.39;100.00;64013.03;4988328;28;20058;-60
2024/01/26 03:48:28;;;;;;;59.63;55.65;;;;;;;-143.39;100.00;64013.03;4981394;28;20054;-60
2024/01/26 03:50:57;;;;;;;60.58;56.47;;;;;;;-143.39;100.00;64013.03;4980442;28;20060;-60
2024/01/26 03:53:24;;;;;;;60.55;56.35;;;;;;;-143.39;100.00;64013.03;4982833;28;20356;-60
2024/01/26 03:55:51;;;;;;;67.68;63.28;;;;;;;-143.39;100.00;64013.03;4979583;28;20059;-60
2024/01/26 03:58:17;;;;;;;71.75;67.25;;;;;;;-143.39;100.00;64013.03;4981645;28;20053;-60
2024/01/26 04:00:45;;;;;;;65.43;61.13;;;;;;;-143.39;100.00;64013.03;4989079;28;20054;-60
2024/01/26 04:03:12;;;;;;;68.68;63.83;;;;;;;-143.39;100.00;64013.03;4984216;28;20101;-61
2024/01/26 04:05:39;;;;;;;65.00;60.33;;;;;;;-143.39;100.00;64013.03;4982757;28;20121;-60
2024/01/26 04:08:08;;;;;;;61.72;57.42;;;;;;;-143.39;100.00;64013.03;4979566;28;20061;-60
2024/01/26 04:10:34;;;;;;;62.40;58.30;;;;;;;-143.39;100.00;64013.03;4977685;28;20059;-60
2024/01/26 04:13:01;;;;;;;62.80;58.70;;;;;;;-143.39;100.00;64013.03;4988210;28;20096;-60
2024/01/26 04:15:28;;;;;;;60.35;56.15;;;;;;;-143.39;100.00;64013.03;4977695;28;20058;-60
2024/01/26 04:17:56;;;;;;;60.50;56.30;;;;;;;-143.39;100.00;64013.03;4988391;28;20050;-60
2024/01/26 04:20:23;;;;;;;61.13;57.03;;;;;;;-143.39;100.00;64013.03;4974771;28;20051;-60
2024/01/26 04:22:50;;;;;;;61.42;57.28;;;;;;;-143.39;100.00;64013.03;4988221;28;20303;-60
2024/01/26 04:25:18;;;;;;;62.17;57.70;;;;;;;-143.39;100.00;64013.03;4978838;28;20148;-60
2024/01/26 04:27:45;;;;;;;63.88;59.58;;;;;;;-143.39;100.00;64013.03;4988906;28;20519;-60
2024/01/26 04:30:14;;;;;;;64.07;59.47;;;;;;;-143.39;100.00;64013.03;4983074;28;20441;-60
2024/01/26 04:32:40;;;;;;;65.35;60.95;;;;;;;-143.39;100.00;64013.03;4983661;28;20058;-60
2024/01/26 04:35:08;;;;;;;67.53;62.83;;;;;;;-143.39;100.00;64013.03;4983672;28;20050;-60
2024/01/26 04:37:34;;;;;;;66.75;62.45;;;;;;;-143.39;100.00;64013.03;4986470;28;20057;-60
2024/01/26 04:40:01;;;;;;;69.28;64.72;;;;;;;-143.39;100.00;64013.03;4984661;28;20142;-60
2024/01/26 04:42:30;;;;;;;71.35;66.65;;;;;;;-143.39;100.00;64013.03;4974946;28;20072;-60
2024/01/26 04:44:57;;;;;;;69.35;64.63;;;;;;;-143.39;100.00;64013.03;4973612;28;20054;-60
2024/01/26 04:47:23;;;;;;;75.25;70.40;;;;;;;-143.39;100.00;64013.03;4988371;28;20059;-60
2024/01/26 04:49:50;;;;;;;68.78;64.07;;;;;;;-143.39;100.00;64013.03;4984515;28;20066;-60
2024/01/26 04:52:17;;;;;;;72.88;67.78;;;;;;;-143.39;100.00;64013.03;4980596;28;20113;-60
2024/01/26 04:54:46;;;;;;;73.85;68.85;;;;;;;-143.39;100.00;64013.03;4979254;28;20571;-60
2024/01/26 04:57:13;;;;;;;78.53;73.07;;;;;;;-143.39;100.00;64013.03;4984056;28;20056;-60
2024/01/26 04:59:41;;;;;;;71.35;66.35;;;;;;;-143.39;100.00;64013.03;4983526;28;20570;-59
2024/01/26 05:02:08;;;;;;;67.25;62.55;;;;;;;-143.39;100.00;64013.03;4978715;28;20113;-60
2024/01/26 05:04:35;;;;;;;66.40;61.80;;;;;;;-143.39;100.00;64013.03;4982033;28;20046;-60
2024/01/26 05:07:02;;;;;;;73.95;68.93;;;;;;;-143.39;100.00;64013.03;4979482;28;20050;-59
2024/01/26 05:09:29;;;;;;;65.63;61.15;;;;;;;-143.39;100.00;64013.03;4981658;28;20042;-60
2024/01/26 05:11:56;;;;;;;62.90;58.33;;;;;;;-143.39;100.00;64013.03;4977794;28;20517;-60
2024/01/26 05:14:23;;;;;;;67.18;62.45;;;;;;;-143.39;100.00;64013.03;4974431;28;20321;-60
2024/01/26 05:16:54;;;;;;;70.30;65.28;;;;;;;-143.39;100.00;64013.03;4980176;28;20059;-60
2024/01/26 05:19:23;;;;;;;67.53;62.45;;;;;;;-143.39;100.00;64013.03;4973004;28;20069;-60
2024/01/26 05:21:50;;;;;;;71.90;66.60;;;;;;;-143.39;100.00;64013.03;4984098;28;20564;-60
2024/01/26 05:24:17;;;;;;;71.82;66.63;;;;;;;-143.39;100.00;64013.03;4973535;28;20050;-60
2024/01/26 05:26:43;;;;;;;68.53;63.03;;;;;;;-143.39;100.00;64013.03;4978826;28;20046;-59
2024/01/26 05:29:10;;;;;;;71.07;65.88;;;;;;;-143.39;100.00;64013.03;4975434;28;20077;-58
2024/01/26 05:31:41;;;;;;;76.40;70.97;;;;;;;-143.39;100.00;64013.03;4975076;28;20441;-58
2024/01/26 05:34:09;;;;;;;75.75;70.65;;;;;;;-143.39;100.00;64013.03;4973307;28;20139;-58
2024/01/26 05:36:40;;;;;;;73.35;68.55;;;;;;;-143.39;100.00;64013.03;4974436;28;20054;-58
2024/01/26 05:39:07;;;;;;;74.45;69.55;;;;;;;-143.39;100.00;64013.03;4977334;28;20575;-58
2024/01/26 05:41:34;;;;;;;74.40;69.50;;;;;;;-143.39;100.00;64013.03;4975292;28;20128;-58
2024/01/26 05:44:01;;;;;;;70.55;66.05;;;;;;;-143.39;100.00;64013.03;4978837;28;20133;-58
2024/01/26 05:46:28;;;;;;;75.20;70.43;;;;;;;-143.39;100.00;64013.03;4975123;28;20817;-58
2024/01/26 05:48:56;;;;;;;74.97;70.38;;;;;;;-143.39;100.00;64013.03;4979681;28;20061;-58
2024/01/26 05:51:27;;;;;;;73.18;68.57;;;;;;;-143.39;100.00;64013.03;4975876;28;20057;-58
2024/01/26 05:53:54;;;;;;;75.93;71.13;;;;;;;-143.39;100.00;64013.03;4980345;28;20057;-58
2024/01/26 05:56:21;;;;;;;78.55;73.72;;;;;;;-143.39;100.00;64013.03;4977248;28;20051;-58
2024/01/26 05:58:49;;;;;;;77.22;72.43;;;;;;;-143.39;100.00;64013.03;4982425;28;20492;-58
2024/01/26 06:01:15;;;;;;;79.32;74.40;;;;;;;-143.39;100.00;64013.03;4977922;28;20051;-58
2024/01/26 06:03:42;;;;;;;76.30;71.50;;;;;;;-143.39;100.00;64013.03;4978075;28;20054;-58
2024/01/26 06:06:09;;;;;;;72.15;67.57;;;;;;;-143.39;100.00;64013.03;4977575;28;20564;-59
2024/01/26 06:08:40;;;;;;;74.68;70.10;;;;;;;-143.39;100.00;64013.03;4975544;28;20069;-58
2024/01/26 06:11:08;;;;;;;75.90;71.30;;;;;;;-143.39;100.00;64013.03;4986184;28;20061;-58
2024/01/26 06:13:35;;;;;;;73.07;68.47;;;;;;;-143.39;100.00;64013.03;4978988;28;20057;-59
2024/01/26 06:16:02;;;;;;;70.35;65.90;;;;;;;-143.39;100.00;64013.03;4969551;28;20173;-58
2024/01/26 06:18:29;;;;;;;73.97;69.40;;;;;;;-143.39;100.00;64013.03;4977707;28;20134;-58
2024/01/26 06:20:56;;;;;;;70.15;65.95;;;;;;;-143.39;100.00;64013.03;4978033;28;20051;-58
2024/01/26 06:23:26;;;;;;;65.28;61.28;;;;;;;-143.39;100.00;64013.03;4976396;28;20436;-58
2024/01/26 06:25:54;;;;;;;66.13;61.10;;;;;;;-143.39;100.00;64013.03;4972046;28;20505;-58
2024/01/26 06:28:21;;;;;;;63.95;59.95;;;;;;;-143.39;100.00;64013.03;4973432;28;20050;-58
2024/01/26 06:30:48;;;;;;;63.53;59.53;;;;;;;-143.39;100.00;64013.03;4973425;28;20069;-58
2024/01/26 06:33:15;;;;;;;62.78;58.97;;;;;;;-143.39;100.00;64013.03;4971795;28;20508;-58
2024/01/26 06:35:42;;;;;;;64.43;60.63;;;;;;;-143.39;100.00;64013.03;4974364;28;20054;-58
2024/01/26 06:38:09;;;;;;;59.13;55.63;;;;;;;-143.39;100.00;64013.03;4969958;28;20518;-58
2024/01/26 06:40:36;;;;;;;59.42;55.72;;;;;;;-143.39;100.00;64013.03;4972105;28;20054;-59
2024/01/26 06:43:06;;;;;;;53.90;50.30;;;;;;;-143.39;100.00;64013.03;4970604;28;20093;-59
2024/01/26 06:45:33;;;;;;;49.33;45.63;;;;;;;-143.39;100.00;64013.03;4968798;28;20053;-58
2024/01/26 06:48:00;;;;;;;49.78;46.78;;;;;;;-143.39;100.00;64013.03;4970675;28;20050;-59
2024/01/26 06:50:27;;;;;;;53.25;50.05;;;;;;;-143.39;100.00;64013.03;4968586;28;20062;-58
2024/01/26 07:49:56;;;;;;;44.77;41.87;;;;;;;5.56;100.00;101483.84;4348519;27;10446171;-69
2024/01/26 07:52:24;;;;;;;46.13;43.03;;;;;;;5.26;100.00;101480.66;5067353;28;20421;-69
2024/01/26 07:54:53;;;;;;;48.47;45.28;;;;;;;6.31;100.00;101470.91;5064436;28;20075;-69
2024/01/26 07:57:20;;;;;;;36.75;34.35;;;;;;;5.13;100.00;101467.03;5073963;28;20047;-69
2024/01/26 07:59:46;;;;;;;39.10;36.55;;;;;;;5.49;100.00;101481.00;5069312;28;20048;-69
2024/01/26 08:02:13;;;;;;;40.80;38.20;;;;;;;5.44;100.00;101475.34;4703854;28;9999724;-70
2024/01/26 08:04:42;;;;;;;38.13;35.53;;;;;;;5.57;100.00;101482.88;5073165;28;20055;-70
2024/01/26 08:07:10;;;;;;;36.65;34.00;;;;;;;5.07;100.00;101472.91;5071874;28;20056;-70
2024/01/26 08:09:37;;;;;;;38.67;36.08;;;;;;;5.05;100.00;101488.03;5069535;28;20052;-71
2024/01/26 08:12:05;;;;;;;35.22;32.45;;;;;;;5.00;100.00;101487.69;5068431;28;20447;-70
2024/01/26 08:14:32;;;;;;;37.30;34.97;;;;;;;5.12;100.00;101490.91;5069236;28;20055;-69
2024/01/26 08:16:59;;;;;;;41.13;38.42;;;;;;;5.12;100.00;101494.38;5069008;28;20067;-69
2024/01/26 08:19:26;;;;;;;38.03;35.45;;;;;;;4.88;100.00;101492.34;5076119;28;20757;-69
2024/01/26 08:21:54;;;;;;;37.45;35.05;;;;;;;4.72;100.00;101500.91;5072770;28;20445;-71
2024/01/26 08:24:21;;;;;;;35.25;32.95;;;;;;;4.36;100.00;101513.97;5088334;28;20066;-70
2024/01/26 08:26:48;;;;;;;38.33;35.72;;;;;;;4.32;100.00;101509.13;5075403;28;20049;-71
2024/01/26 08:29:15;;;;;;;38.13;35.63;;;;;;;4.82;100.00;101514.00;5073268;28;20056;-70
2024/01/26 08:31:42;;;;;;;37.63;35.33;;;;;;;4.67;100.00;101513.66;5071898;28;20048;-71
2024/01/26 08:34:09;;;;;;;36.42;34.17;;;;;;;4.55;100.00;101507.78;5077505;28;20059;-71
2024/01/26 08:36:36;;;;;;;39.65;37.15;;;;;;;4.42;100.00;101514.34;5070416;28;20045;-71
2024/01/26 08:39:05;;;;;;;39.92;37.42;;;;;;;4.43;100.00;101523.91;5066045;28;20048;-69
2024/01/26 08:41:33;;;;;;;41.58;38.95;;;;;;;4.33;100.00;101537.09;5068927;28;20040;-69
2024/01/26 08:44:00;;;;;;;40.55;37.95;;;;;;;4.11;100.00;101530.38;5076376;28;20052;-69
2024/01/26 08:46:27;;;;;;;47.17;43.40;;;;;;;4.11;100.00;101530.38;5072030;28;20084;-71
2024/01/26 08:48:55;;;;;;;48.42;45.08;;;;;;;4.16;100.00;101533.41;5060758;28;20062;-70
2024/01/26 08:51:24;;;;;;;49.83;46.22;;;;;;;4.49;100.00;101523.31;5068813;28;20072;-70
2024/01/26 08:53:51;;;;;;;59.13;46.22;;;;;;;4.94;100.00;101528.59;5059652;28;20056;-69
2024/01/26 08:56:20;;;;;;;43.10;39.92;;;;;;;4.65;100.00;101533.19;5067943;28;20060;-69
2024/01/26 08:58:49;;;;;;;51.28;47.92;;;;;;;4.84;100.00;101525.19;5076829;28;20049;-69
2024/01/26 09:01:17;;;;;;;45.30;42.30;;;;;;;4.59;100.00;101522.28;5057376;28;20441;-69
2024/01/26 09:03:44;;;;;;;45.40;42.40;;;;;;;4.42;100.00;101533.59;5055863;28;20106;-69
2024/01/26 09:06:13;;;;;;;48.65;45.45;;;;;;;4.74;100.00;101529.69;5054170;28;20087;-69
2024/01/26 09:08:44;;;;;;;45.65;42.55;;;;;;;5.42;100.00;101527.38;5055607;28;20071;-69
2024/01/26 09:11:11;;;;;;;40.55;37.65;;;;;;;5.93;100.00;101532.88;5053803;28;20075;-69
2024/01/26 09:13:41;;;;;;;36.88;34.38;;;;;;;5.80;100.00;101520.06;5060068;28;20528;-71
2024/01/26 09:16:13;;;;;;;35.15;32.85;;;;;;;5.32;100.00;101525.81;5060486;28;20058;-69
2024/01/26 09:18:40;;;;;;;39.08;36.40;;;;;;;5.16;100.00;101524.69;5060962;28;20088;-69
2024/01/26 09:21:10;;;;;;;43.38;40.47;;;;;;;5.50;100.00;101532.69;5062632;28;20572;-69
2024/01/26 09:23:37;;;;;;;46.88;43.67;;;;;;;5.44;100.00;101530.69;5060312;28;20114;-71
2024/01/26 09:26:05;;;;;;;51.95;48.38;;;;;;;5.18;100.00;101530.63;5067653;28;20059;-71
2024/01/26 09:28:32;;;;;;;58.80;54.72;;;;;;;5.39;100.00;101521.59;5061956;28;20072;-71
2024/01/26 09:31:00;;;;;;;62.60;58.30;;;;;;;6.09;100.00;101522.44;5059622;28;20061;-71
2024/01/26 09:33:27;;;;;;;54.63;50.92;;;;;;;6.06;100.00;101520.09;5063768;28;20441;-71
2024/01/26 09:35:56;;;;;;;47.60;44.20;;;;;;;6.57;100.00;101518.34;5063607;28;20155;-69
2024/01/26 09:38:23;;;;;;;40.72;37.83;;;;;;;6.91;100.00;101503.44;5060756;28;20139;-69
2024/01/26 09:40:50;;;;;;;51.42;47.92;;;;;;;9.07;100.00;101506.81;5052459;28;20056;-69
2024/01/26 09:43:17;;;;;;;23.98;22.27;;;;;;;7.40;100.00;101508.75;5063258;28;20048;-69
2024/01/26 09:45:44;;;;;;;24.00;22.30;;;;;;;7.71;100.00;101506.22;5063574;28;20825;-69
2024/01/26 09:48:16;;;;;;;23.20;21.55;;;;;;;8.25;100.00;101504.59;5055918;28;20041;-69
2024/01/26 09:50:43;;;;;;;22.27;20.58;;;;;;;8.08;100.00;101510.09;5065107;28;20079;-69
2024/01/26 09:53:14;;;;;;;23.50;21.50;;;;;;;7.09;100.00;101501.47;5061120;28;20055;-68
2024/01/26 09:55:44;;;;;;;22.08;20.48;;;;;;;7.85;100.00;101497.63;5057350;28;20446;-68
2024/01/26 09:58:17;;;;;;;23.27;21.52;;;;;;;8.70;100.00;101504.91;5056809;28;20133;-69
2024/01/26 10:00:45;;;;;;;22.92;21.23;;;;;;;7.77;100.00;101511.66;5050274;28;20059;-70
2024/01/26 10:03:12;;;;;;;23.13;21.42;;;;;;;7.50;100.00;101506.75;5051652;28;20070;-69
2024/01/26 10:05:41;;;;;;;24.45;22.65;;;;;;;8.51;100.00;101498.25;5066030;28;20451;-70
2024/01/26 10:08:12;;;;;;;22.40;20.90;;;;;;;8.71;100.00;101501.25;5060378;28;20059;-70
2024/01/26 10:10:40;;;;;;;22.10;20.60;;;;;;;9.16;100.00;101495.16;5063794;28;20087;-71
2024/01/26 10:13:07;;;;;;;21.30;19.80;;;;;;;9.59;100.00;101499.94;5053630;28;20059;-70
2024/01/26 10:15:34;;;;;;;21.30;19.90;;;;;;;9.19;100.00;101488.69;5061421;28;20057;-70
2024/01/26 10:18:02;;;;;;;23.08;21.48;;;;;;;9.74;100.00;101484.88;5064724;28;20045;-70
2024/01/26 10:20:29;;;;;;;22.98;21.48;;;;;;;9.65;100.00;101485.94;5055507;28;20048;-70
2024/01/26 10:22:57;;;;;;;22.38;20.77;;;;;;;8.67;100.00;101492.03;5069712;28;20528;-70
2024/01/26 10:25:24;;;;;;;22.02;20.52;;;;;;;8.39;100.00;101489.03;5055749;28;20173;-70
2024/01/26 10:27:51;;;;;;;21.90;20.35;;;;;;;8.23;100.00;101490.72;5057162;28;20149;-70
2024/01/26 10:30:19;;;;;;;23.10;21.40;;;;;;;8.39;100.00;101486.38;5059170;28;20606;-69
2024/01/26 10:32:47;;;;;;;21.30;19.70;;;;;;;9.17;100.00;101483.56;5053124;28;20441;-70
2024/01/26 10:35:16;;;;;;;24.20;22.50;;;;;;;9.22;100.00;101476.91;5058553;28;20053;-69
2024/01/26 10:37:46;;;;;;;23.10;21.50;;;;;;;10.33;100.00;101473.44;5059647;28;20056;-70
2024/01/26 10:40:17;;;;;;;22.20;20.60;;;;;;;10.01;100.00;101478.09;5060177;28;20048;-70
2024/01/26 10:42:46;;;;;;;22.02;20.52;;;;;;;9.40;100.00;101459.66;5068454;28;20049;-69
2024/01/26 10:45:15;;;;;;;24.10;22.50;;;;;;;8.41;100.00;101455.25;5051249;28;20118;-68
2024/01/26 10:47:43;;;;;;;23.85;22.35;;;;;;;8.79;100.00;101448.25;5065553;28;20049;-68
2024/01/26 10:50:11;;;;;;;23.92;22.33;;;;;;;7.49;100.00;101463.63;5050883;28;20141;-69
2024/01/26 10:52:39;;;;;;;22.67;21.17;;;;;;;7.23;100.00;101466.47;5061189;28;20703;-69
2024/01/26 10:55:07;;;;;;;32.45;29.60;;;;;;;8.68;100.00;101470.69;5060972;28;20647;-68
2024/01/26 10:57:36;;;;;;;27.80;25.80;;;;;;;9.13;100.00;101468.19;5064285;28;20134;-69
2024/01/26 11:00:05;;;;;;;23.45;21.75;;;;;;;9.34;100.00;101467.53;5052186;28;20063;-69
2024/01/26 11:02:36;;;;;;;22.52;21.02;;;;;;;9.06;100.00;101460.13;5057035;28;20140;-69
2024/01/26 11:05:09;;;;;;;22.35;20.75;;;;;;;10.32;100.00;101461.19;5059417;28;20417;-68
2024/01/26 11:07:37;;;;;;;23.55;21.75;;;;;;;10.35;100.00;101463.47;5057445;28;20053;-69
2024/01/26 11:10:10;;;;;;;22.80;21.20;;;;;;;10.18;100.00;101459.34;5061225;28;20052;-69
2024/01/26 11:12:39;;;;;;;;;;;;;;;11.09;100.00;101449.91;5055461;28;20063;-69
2024/01/26 11:15:12;;;;;;;24.35;22.60;;;;;;;9.93;100.00;101453.50;5060308;28;19921;-69
2024/01/26 11:17:44;;;;;;;25.05;23.45;;;;;;;10.60;100.00;101460.47;5050446;28;20052;-69
2024/01/26 11:20:18;;;;;;;23.95;22.35;;;;;;;9.85;100.00;101462.38;5055023;28;20805;-68
2024/01/26 11:22:45;;;;;;;24.20;22.60;;;;;;;9.05;100.00;101455.84;5045766;28;20057;-69
2024/01/26 11:25:21;;;;;;;23.85;22.25;;;;;;;10.26;100.00;101451.28;5058470;28;20057;-69
2024/01/26 11:27:58;;;;;;;21.75;20.25;;;;;;;10.22;100.00;101453.47;5057663;28;20048;-69
2024/01/26 11:30:28;;;;;;;23.30;21.80;;;;;;;8.58;100.00;101453.34;5056579;28;20432;-68
2024/01/26 11:32:56;;;;;;;22.40;20.80;;;;;;;10.02;100.00;101444.44;5048859;28;20060;-69
2024/01/26 11:35:23;;;;;;;23.63;21.95;;;;;;;10.26;100.00;101435.34;5055161;28;20149;-68
2024/01/26 11:37:53;;;;;;;21.80;20.20;;;;;;;10.08;100.00;101438.41;5061474;28;20048;-68
2024/01/26 11:40:20;;;;;;;22.23;20.63;;;;;;;11.42;100.00;101444.88;5061294;28;20135;-68
2024/01/26 11:42:49;;;;;;;22.70;21.20;;;;;;;9.84;100.00;101437.69;5049211;28;20057;-68
2024/01/26 11:45:37;;;;;;;22.60;21.10;;;;;;;10.34;100.00;101443.22;5066706;28;20049;-70
2024/01/26 11:48:07;;;;;;;21.73;20.23;;;;;;;10.53;100.00;101437.34;5054924;28;20096;-70
2024/01/26 11:50:34;;;;;;;23.80;22.30;;;;;;;9.51;100.00;101431.91;5070048;28;20052;-70
2024/01/26 11:53:01;;;;;;;23.17;21.58;;;;;;;11.23;100.00;101435.72;5051242;28;20056;-70
2024/01/26 11:55:29;;;;;;;22.38;20.88;;;;;;;10.83;100.00;101431.06;5071633;28;20060;-70
2024/01/26 11:57:58;;;;;;;23.90;22.20;;;;;;;9.43;100.00;101436.47;5064784;28;20710;-70
2024/01/26 12:00:24;;;;;;;23.05;21.45;;;;;;;7.99;100.00;101457.25;5066676;28;20449;-70